createdAt,value
2017-07-06T00:02:22.346Z,16.60
2017-07-06T00:04:50.656Z,16.60
2017-07-06T00:07:19.008Z,16.60
2017-07-06T00:09:47.402Z,16.60
2017-07-06T00:12:16.448Z,16.50
2017-07-06T00:14:44.731Z,16.50
2017-07-06T00:17:13.130Z,16.60
2017-07-06T00:19:41.503Z,16.50
2017-07-06T00:22:09.784Z,16.40
2017-07-06T00:24:38.069Z,16.40
2017-07-06T00:27:07.154Z,16.50
2017-07-06T00:29:35.481Z,16.50
2017-07-06T00:32:03.819Z,16.60
2017-07-06T00:34:32.192Z,16.60
2017-07-06T00:37:00.481Z,16.60
2017-07-06T00:39:29.524Z,16.60
2017-07-06T00:41:57.838Z,16.60
2017-07-06T00:44:26.122Z,16.50
2017-07-06T00:46:54.411Z,16.40
2017-07-06T00:49:23.480Z,16.30
2017-07-06T00:51:51.743Z,16.20
2017-07-06T00:54:20.140Z,16.30
2017-07-06T00:56:48.527Z,16.20
2017-07-06T00:59:16.842Z,16.10
2017-07-06T01:01:45.109Z,16.10
2017-07-06T01:04:14.153Z,16.10
2017-07-06T01:06:42.555Z,16.10
2017-07-06T01:09:10.867Z,16.10
2017-07-06T01:11:39.272Z,16.20
2017-07-06T01:14:07.578Z,16.20
2017-07-06T01:16:35.854Z,16.30
2017-07-06T01:19:04.221Z,16.30
2017-07-06T01:21:32.487Z,16.20
2017-07-06T01:24:00.777Z,16.20
2017-07-06T01:26:29.096Z,16.10
2017-07-06T01:28:58.139Z,16.10
2017-07-06T01:31:26.429Z,16.00
2017-07-06T01:33:54.736Z,16.00
2017-07-06T01:36:23.755Z,16.00
2017-07-06T01:38:52.090Z,16.00
2017-07-06T01:41:20.494Z,16.00
2017-07-06T01:43:49.523Z,15.90
2017-07-06T01:46:17.824Z,15.90
2017-07-06T01:48:46.098Z,15.90
2017-07-06T01:51:14.345Z,15.80
2017-07-06T01:53:42.663Z,15.80
2017-07-06T01:56:10.953Z,15.90
2017-07-06T01:58:39.296Z,15.90
2017-07-06T02:01:07.580Z,15.80
2017-07-06T02:03:35.837Z,15.80
2017-07-06T02:06:04.893Z,15.80
2017-07-06T02:08:33.157Z,15.80
2017-07-06T02:11:01.581Z,15.80
2017-07-06T02:13:29.833Z,15.80
2017-07-06T02:15:58.106Z,15.80
2017-07-06T02:18:26.380Z,15.80
2017-07-06T02:20:54.651Z,15.80
2017-07-06T02:23:22.927Z,15.80
2017-07-06T02:25:51.209Z,15.80
2017-07-06T02:28:19.479Z,15.80
2017-07-06T02:30:48.607Z,15.90
2017-07-06T02:33:16.879Z,15.90
2017-07-06T02:35:45.250Z,15.90
2017-07-06T02:38:13.538Z,15.90
2017-07-06T02:40:41.797Z,16.00
2017-07-06T02:43:10.202Z,16.00
2017-07-06T02:45:38.578Z,16.10
2017-07-06T02:48:06.955Z,16.10
2017-07-06T02:50:35.229Z,16.20
2017-07-06T02:53:03.614Z,16.30
2017-07-06T02:55:31.981Z,16.30
2017-07-06T02:58:00.259Z,16.30
2017-07-06T03:00:28.634Z,16.40
2017-07-06T03:02:56.901Z,16.50
2017-07-06T03:05:25.309Z,16.50
2017-07-06T03:07:53.604Z,16.50
2017-07-06T03:10:21.859Z,16.50
2017-07-06T03:12:50.245Z,16.50
2017-07-06T03:15:18.497Z,16.50
2017-07-06T03:17:46.897Z,16.40
2017-07-06T03:20:15.166Z,16.40
2017-07-06T03:22:43.454Z,16.30
2017-07-06T03:25:11.830Z,16.30
2017-07-06T03:27:40.088Z,16.30
2017-07-06T03:30:08.381Z,16.30
2017-07-06T03:32:36.669Z,16.30
2017-07-06T03:35:04.925Z,16.30
2017-07-06T03:37:33.224Z,16.40
2017-07-06T03:40:02.393Z,16.40
2017-07-06T03:42:30.654Z,16.50
2017-07-06T03:44:58.950Z,16.50
2017-07-06T03:47:27.219Z,16.60
2017-07-06T03:49:55.518Z,16.60
2017-07-06T03:52:23.811Z,16.60
2017-07-06T03:54:52.098Z,16.60
2017-07-06T03:57:20.473Z,16.80
2017-07-06T03:59:48.844Z,16.80
2017-07-06T04:02:17.117Z,16.90
2017-07-06T04:04:45.396Z,16.90
2017-07-06T04:07:13.778Z,17.00
2017-07-06T04:09:42.038Z,17.10
2017-07-06T04:12:10.440Z,17.10
2017-07-06T04:14:38.691Z,17.10
2017-07-06T04:17:06.955Z,17.10
2017-07-06T04:19:35.263Z,17.20
2017-07-06T04:22:03.521Z,17.20
2017-07-06T04:24:31.840Z,17.20
2017-07-06T04:27:00.301Z,17.20
2017-07-06T04:29:28.566Z,17.30
2017-07-06T04:31:56.838Z,17.30
2017-07-06T04:34:25.129Z,17.20
2017-07-06T04:36:53.508Z,17.30
2017-07-06T04:39:21.776Z,17.40
2017-07-06T04:41:50.079Z,17.40
2017-07-06T04:44:18.427Z,17.30
2017-07-06T04:46:46.701Z,17.40
2017-07-06T04:49:14.989Z,17.50
2017-07-06T04:51:44.055Z,17.60
2017-07-06T04:54:12.433Z,17.60
2017-07-06T04:56:40.692Z,17.60
2017-07-06T04:59:08.994Z,17.60
2017-07-06T05:01:37.394Z,17.70
2017-07-06T05:04:05.758Z,17.70
2017-07-06T05:06:34.139Z,17.80
2017-07-06T05:09:02.518Z,17.80
2017-07-06T05:11:30.824Z,17.80
2017-07-06T05:13:59.104Z,17.90
2017-07-06T05:16:27.371Z,17.90
2017-07-06T05:18:56.428Z,18.00
2017-07-06T05:21:24.687Z,18.00
2017-07-06T05:23:52.989Z,18.00
2017-07-06T05:26:21.278Z,18.10
2017-07-06T05:28:49.658Z,18.20
2017-07-06T05:31:18.028Z,18.20
2017-07-06T05:33:46.302Z,18.30
2017-07-06T05:36:14.603Z,18.30
2017-07-06T05:38:42.870Z,18.30
2017-07-06T05:41:11.131Z,18.40
2017-07-06T05:43:39.421Z,18.50
2017-07-06T05:46:07.672Z,18.50
2017-07-06T05:48:35.982Z,18.50
2017-07-06T05:51:04.241Z,18.60
2017-07-06T05:53:32.496Z,18.70
2017-07-06T05:56:00.784Z,18.70
2017-07-06T05:58:29.081Z,18.60
2017-07-06T06:00:57.373Z,18.80
2017-07-06T06:03:26.405Z,18.90
2017-07-06T06:05:54.676Z,18.90
2017-07-06T06:08:22.983Z,19.10
2017-07-06T06:10:51.248Z,19.20
2017-07-06T06:13:19.540Z,19.30
2017-07-06T06:15:47.804Z,19.30
2017-07-06T06:18:16.069Z,19.20
2017-07-06T06:20:44.377Z,19.30
2017-07-06T06:23:12.658Z,19.40
2017-07-06T06:25:41.042Z,19.40
2017-07-06T06:28:09.318Z,19.40
2017-07-06T06:30:37.678Z,19.40
2017-07-06T06:33:05.937Z,19.50
2017-07-06T06:35:34.209Z,19.50
2017-07-06T06:38:02.501Z,19.60
2017-07-06T06:40:30.862Z,19.60
2017-07-06T06:42:59.266Z,19.70
2017-07-06T06:45:27.665Z,19.70
2017-07-06T06:47:55.932Z,19.60
2017-07-06T06:50:24.223Z,19.70
2017-07-06T06:52:52.559Z,19.70
2017-07-06T06:55:20.855Z,19.80
2017-07-06T06:57:49.231Z,19.90
2017-07-06T07:00:17.490Z,20.00
2017-07-06T07:02:45.771Z,20.10
2017-07-06T07:05:14.061Z,20.10
2017-07-06T07:07:42.458Z,20.20
2017-07-06T07:10:10.721Z,20.40
2017-07-06T07:12:38.992Z,20.40
2017-07-06T07:15:07.374Z,20.60
2017-07-06T07:17:35.657Z,20.80
2017-07-06T07:20:03.910Z,20.90
2017-07-06T07:22:32.217Z,21.20
2017-07-06T07:25:00.583Z,21.20
2017-07-06T07:27:28.840Z,21.30
2017-07-06T07:29:57.135Z,21.50
2017-07-06T07:32:25.419Z,21.50
2017-07-06T07:34:53.699Z,21.70
2017-07-06T07:37:21.982Z,21.80
2017-07-06T07:39:50.257Z,21.70
2017-07-06T07:42:18.539Z,21.70
2017-07-06T07:44:46.793Z,21.90
2017-07-06T07:47:15.090Z,22.00
2017-07-06T07:49:43.373Z,21.90
2017-07-06T07:52:11.729Z,21.90
2017-07-06T07:54:40.113Z,21.80
2017-07-06T07:57:08.382Z,22.00
2017-07-06T07:59:36.664Z,22.10
2017-07-06T08:02:04.930Z,22.20
2017-07-06T08:04:33.178Z,22.20
2017-07-06T08:07:01.494Z,22.20
2017-07-06T08:09:29.772Z,22.00
2017-07-06T08:11:58.161Z,22.10
2017-07-06T08:14:26.435Z,22.40
2017-07-06T08:16:54.715Z,22.50
2017-07-06T08:19:23.086Z,22.60
2017-07-06T08:21:51.414Z,22.80
2017-07-06T08:24:19.677Z,22.60
2017-07-06T08:26:48.742Z,22.60
2017-07-06T08:29:17.000Z,22.60
2017-07-06T08:31:45.380Z,22.40
2017-07-06T08:34:13.684Z,22.50
2017-07-06T08:36:41.989Z,22.40
2017-07-06T08:39:11.058Z,22.50
2017-07-06T08:41:39.337Z,22.50
2017-07-06T08:44:07.609Z,22.40
2017-07-06T08:46:35.887Z,22.60
2017-07-06T08:49:04.245Z,22.40
2017-07-06T08:51:32.514Z,22.50
2017-07-06T08:54:00.889Z,22.60
2017-07-06T08:56:29.186Z,22.50
2017-07-06T08:58:57.442Z,22.60
2017-07-06T09:01:25.735Z,22.60
2017-07-06T09:03:54.015Z,22.60
2017-07-06T09:06:22.295Z,22.50
2017-07-06T09:08:50.558Z,22.70
2017-07-06T09:11:18.856Z,23.00
2017-07-06T09:13:47.121Z,23.00
2017-07-06T09:16:15.463Z,23.10
2017-07-06T09:18:43.780Z,23.00
2017-07-06T09:21:12.067Z,23.40
2017-07-06T09:23:40.433Z,23.60
2017-07-06T09:26:08.827Z,23.90
2017-07-06T09:28:37.104Z,23.80
2017-07-06T09:31:05.361Z,23.80
2017-07-06T09:33:33.764Z,23.60
2017-07-06T09:36:02.029Z,23.70
2017-07-06T09:38:30.312Z,23.60
2017-07-06T09:40:58.576Z,23.70
2017-07-06T09:43:26.856Z,23.80
2017-07-06T09:45:55.120Z,24.10
2017-07-06T09:48:23.397Z,24.40
2017-07-06T09:50:51.694Z,24.60
2017-07-06T09:53:20.083Z,24.50
2017-07-06T09:55:48.446Z,24.60
2017-07-06T09:58:16.746Z,24.90
2017-07-06T10:00:45.772Z,25.00
2017-07-06T10:03:14.094Z,24.90
2017-07-06T10:05:42.364Z,25.00
2017-07-06T10:08:10.673Z,25.20
2017-07-06T10:10:38.954Z,25.10
2017-07-06T10:13:08.003Z,25.20
2017-07-06T10:15:36.294Z,25.20
2017-07-06T10:18:04.774Z,24.70
2017-07-06T10:20:33.056Z,24.20
2017-07-06T10:23:01.434Z,24.20
2017-07-06T10:25:29.721Z,24.40
2017-07-06T10:27:57.993Z,24.50
2017-07-06T10:30:26.250Z,24.90
2017-07-06T10:32:54.677Z,24.60
2017-07-06T10:35:23.749Z,24.90
2017-07-06T10:37:53.041Z,25.20
2017-07-06T10:40:21.326Z,25.20
2017-07-06T10:42:49.582Z,25.30
2017-07-06T10:45:17.984Z,25.30
2017-07-06T10:47:46.263Z,25.60
2017-07-06T10:50:14.545Z,25.70
2017-07-06T10:52:43.576Z,25.40
2017-07-06T10:55:11.880Z,25.30
2017-07-06T10:57:40.182Z,25.60
2017-07-06T11:00:08.447Z,25.80
2017-07-06T11:02:36.821Z,25.70
2017-07-06T11:05:05.089Z,25.60
2017-07-06T11:07:33.487Z,25.70
2017-07-06T11:10:01.769Z,25.50
2017-07-06T11:12:30.045Z,25.70
2017-07-06T11:14:59.241Z,25.60
2017-07-06T11:17:27.500Z,25.70
2017-07-06T11:19:56.008Z,25.60
2017-07-06T11:22:24.259Z,25.70
2017-07-06T11:24:52.553Z,25.90
2017-07-06T11:27:20.941Z,25.90
2017-07-06T11:29:49.309Z,25.90
2017-07-06T11:32:17.565Z,25.70
2017-07-06T11:34:45.837Z,25.70
2017-07-06T11:37:14.096Z,25.80
2017-07-06T11:39:42.385Z,25.90
2017-07-06T11:42:10.652Z,25.60
2017-07-06T11:44:38.969Z,25.80
2017-07-06T11:47:07.416Z,26.40
2017-07-06T11:49:35.727Z,26.00
2017-07-06T11:52:04.009Z,25.90
2017-07-06T11:54:32.394Z,25.70
2017-07-06T11:57:00.702Z,25.80
2017-07-06T11:59:29.764Z,25.80
2017-07-06T12:01:58.014Z,25.70
2017-07-06T12:04:26.311Z,25.70
2017-07-06T12:06:54.599Z,25.50
2017-07-06T12:09:22.885Z,25.50
2017-07-06T12:11:51.127Z,25.70
2017-07-06T12:14:19.519Z,25.70
2017-07-06T12:16:47.784Z,25.80
2017-07-06T12:19:16.059Z,26.60
2017-07-06T12:21:44.334Z,27.10
2017-07-06T12:24:12.606Z,26.60
2017-07-06T12:26:40.894Z,26.30
2017-07-06T12:29:09.159Z,26.50
2017-07-06T12:31:37.466Z,26.80
2017-07-06T12:34:05.720Z,26.80
2017-07-06T12:36:34.034Z,27.10
2017-07-06T12:39:02.334Z,27.10
2017-07-06T12:41:31.358Z,27.40
2017-07-06T12:43:59.648Z,27.40
2017-07-06T12:46:27.954Z,27.30
2017-07-06T12:48:56.227Z,27.10
2017-07-06T12:51:24.615Z,28.00
2017-07-06T12:53:52.874Z,30.50
2017-07-06T12:56:21.264Z,33.30
2017-07-06T12:58:49.544Z,34.30
2017-07-06T13:01:17.929Z,34.30
2017-07-06T13:03:46.994Z,35.00
2017-07-06T13:06:15.247Z,35.00
2017-07-06T13:08:43.530Z,33.70
2017-07-06T13:11:11.784Z,32.40
2017-07-06T13:13:40.083Z,32.30
2017-07-06T13:16:08.385Z,33.80
2017-07-06T13:18:36.660Z,35.40
2017-07-06T13:21:05.044Z,35.40
2017-07-06T13:23:33.305Z,35.80
2017-07-06T13:26:01.609Z,35.90
2017-07-06T13:28:29.879Z,35.80
2017-07-06T13:30:58.154Z,36.10
2017-07-06T13:33:26.435Z,36.60
2017-07-06T13:35:54.692Z,36.10
2017-07-06T13:38:23.002Z,34.90
2017-07-06T13:40:51.375Z,33.40
2017-07-06T13:43:19.676Z,33.10
2017-07-06T13:45:47.945Z,34.20
2017-07-06T13:48:16.205Z,34.10
2017-07-06T13:50:44.481Z,34.10
2017-07-06T13:53:12.770Z,34.90
2017-07-06T13:55:41.074Z,36.30
2017-07-06T13:58:09.342Z,37.40
2017-07-06T14:00:37.631Z,37.50
2017-07-06T14:03:06.007Z,37.80
2017-07-06T14:05:34.285Z,38.50
2017-07-06T14:08:02.577Z,37.90
2017-07-06T14:10:30.950Z,36.90
2017-07-06T14:12:59.213Z,36.50
2017-07-06T14:15:27.596Z,35.00
2017-07-06T14:17:55.873Z,33.30
2017-07-06T14:20:24.268Z,32.90
2017-07-06T14:22:52.645Z,33.80
2017-07-06T14:25:20.908Z,34.80
2017-07-06T14:27:49.199Z,34.80
2017-07-06T14:30:17.458Z,35.70
2017-07-06T14:32:45.751Z,35.10
2017-07-06T14:35:14.808Z,35.30
2017-07-06T14:37:43.067Z,35.30
2017-07-06T14:40:11.389Z,35.80
2017-07-06T14:42:39.681Z,37.00
2017-07-06T14:45:08.045Z,36.80
2017-07-06T14:47:36.314Z,37.10
2017-07-06T14:50:04.594Z,37.40
2017-07-06T14:52:32.857Z,37.30
2017-07-06T14:55:01.259Z,36.60
2017-07-06T14:57:29.557Z,36.10
2017-07-06T14:59:57.858Z,36.20
2017-07-06T15:02:26.192Z,36.90
2017-07-06T15:04:54.500Z,37.10
2017-07-06T15:07:23.588Z,37.10
2017-07-06T15:09:51.916Z,37.10
2017-07-06T15:12:20.233Z,37.40
2017-07-06T15:14:48.526Z,36.50
2017-07-06T15:17:17.581Z,34.30
2017-07-06T15:19:45.865Z,34.20
2017-07-06T15:22:14.263Z,33.20
2017-07-06T15:24:42.621Z,34.30
2017-07-06T15:27:11.030Z,35.80
2017-07-06T15:29:40.095Z,35.20
2017-07-06T15:32:08.365Z,35.20
2017-07-06T15:34:36.640Z,34.20
2017-07-06T15:37:04.892Z,33.20
2017-07-06T15:39:33.213Z,32.90
2017-07-06T15:42:01.475Z,33.10
2017-07-06T15:44:30.002Z,32.80
2017-07-06T15:46:58.545Z,32.90
2017-07-06T15:49:26.813Z,33.30
2017-07-06T15:51:55.093Z,33.30
2017-07-06T15:54:23.456Z,32.00
2017-07-06T15:56:52.069Z,31.40
2017-07-06T15:59:20.463Z,31.00
2017-07-06T16:01:48.726Z,30.70
2017-07-06T16:04:17.946Z,30.30
2017-07-06T16:06:48.987Z,31.40
2017-07-06T16:09:17.728Z,31.00
2017-07-06T16:11:46.510Z,30.70
2017-07-06T16:14:14.774Z,31.20
2017-07-06T16:16:43.094Z,31.80
2017-07-06T16:19:11.428Z,32.60
2017-07-06T16:21:40.178Z,33.10
2017-07-06T16:24:08.529Z,33.70
2017-07-06T16:26:36.821Z,34.10
2017-07-06T16:29:05.195Z,34.30
2017-07-06T16:31:33.489Z,35.10
2017-07-06T16:34:01.756Z,34.60
2017-07-06T16:36:30.021Z,34.20
2017-07-06T16:38:58.321Z,34.60
2017-07-06T16:41:26.586Z,34.60
2017-07-06T16:43:54.830Z,34.40
2017-07-06T16:46:23.149Z,34.70
2017-07-06T16:48:51.410Z,34.30
2017-07-06T16:51:19.709Z,33.80
2017-07-06T16:53:48.000Z,34.50
2017-07-06T16:56:17.029Z,34.70
2017-07-06T16:58:45.312Z,34.70
2017-07-06T17:01:13.566Z,34.10
2017-07-06T17:03:42.342Z,33.90
2017-07-06T17:06:10.681Z,33.80
2017-07-06T17:08:39.058Z,33.50
2017-07-06T17:11:07.313Z,33.20
2017-07-06T17:13:35.621Z,33.60
2017-07-06T17:16:03.891Z,33.00
2017-07-06T17:18:32.167Z,32.60
2017-07-06T17:21:00.552Z,32.80
2017-07-06T17:23:28.803Z,32.80
2017-07-06T17:25:57.105Z,32.70
2017-07-06T17:28:25.374Z,33.10
2017-07-06T17:30:53.754Z,33.00
2017-07-06T17:33:22.138Z,32.50
2017-07-06T17:35:50.634Z,32.60
2017-07-06T17:38:18.971Z,32.80
2017-07-06T17:40:47.279Z,32.20
2017-07-06T17:43:15.547Z,32.40
2017-07-06T17:45:43.848Z,32.20
2017-07-06T17:48:12.221Z,31.90
2017-07-06T17:50:40.506Z,32.40
2017-07-06T17:53:09.577Z,32.30
2017-07-06T17:55:37.858Z,32.30
2017-07-06T17:58:06.138Z,31.70
2017-07-06T18:00:34.429Z,31.60
2017-07-06T18:03:02.798Z,31.80
2017-07-06T18:05:31.045Z,31.20
2017-07-06T18:07:59.339Z,31.10
2017-07-06T18:10:27.646Z,31.10
2017-07-06T18:12:55.922Z,30.90
2017-07-06T18:15:24.952Z,30.50
2017-07-06T18:17:53.309Z,30.50
2017-07-06T18:20:22.371Z,30.20
2017-07-06T18:22:50.744Z,29.80
2017-07-06T18:25:19.004Z,29.70
2017-07-06T18:27:47.306Z,29.90
2017-07-06T18:30:15.676Z,29.90
2017-07-06T18:32:43.959Z,29.90
2017-07-06T18:35:12.271Z,29.30
2017-07-06T18:37:41.338Z,28.60
2017-07-06T18:40:09.712Z,28.60
2017-07-06T18:42:37.985Z,28.50
2017-07-06T18:45:06.256Z,28.30
2017-07-06T18:47:34.552Z,28.40
2017-07-06T18:50:02.831Z,28.20
2017-07-06T18:52:31.093Z,28.10
2017-07-06T18:54:59.371Z,27.80
2017-07-06T18:57:27.659Z,27.60
2017-07-06T18:59:55.977Z,27.60
2017-07-06T19:02:25.158Z,27.20
2017-07-06T19:04:53.519Z,27.10
2017-07-06T19:07:21.806Z,27.00
2017-07-06T19:09:50.083Z,26.80
2017-07-06T19:12:18.480Z,26.60
2017-07-06T19:14:46.842Z,26.40
2017-07-06T19:17:15.195Z,26.20
2017-07-06T19:19:43.454Z,26.00
2017-07-06T19:22:11.746Z,25.80
2017-07-06T19:24:40.026Z,25.50
2017-07-06T19:27:08.378Z,25.30
2017-07-06T19:29:36.709Z,25.10
2017-07-06T19:32:05.020Z,24.90
2017-07-06T19:34:33.290Z,24.80
2017-07-06T19:37:01.575Z,24.60
2017-07-06T19:39:29.846Z,24.40
2017-07-06T19:41:58.241Z,24.20
2017-07-06T19:44:26.538Z,24.00
2017-07-06T19:46:54.895Z,23.90
2017-07-06T19:49:23.172Z,23.70
2017-07-06T19:51:51.453Z,23.50
2017-07-06T19:54:19.742Z,23.40
2017-07-06T19:56:48.000Z,23.10
2017-07-06T19:59:16.356Z,23.00
2017-07-06T20:01:44.657Z,22.80
2017-07-06T20:04:12.939Z,22.70
2017-07-06T20:06:41.230Z,22.50
2017-07-06T20:09:10.301Z,22.40
2017-07-06T20:11:38.665Z,22.30
2017-07-06T20:14:07.053Z,22.30
2017-07-06T20:16:35.318Z,22.10
2017-07-06T20:19:03.642Z,22.00
2017-07-06T20:21:31.915Z,21.90
2017-07-06T20:24:00.956Z,21.70
2017-07-06T20:26:29.351Z,21.70
2017-07-06T20:28:57.607Z,21.60
2017-07-06T20:31:25.905Z,21.50
2017-07-06T20:33:54.175Z,21.50
2017-07-06T20:36:22.547Z,21.40
2017-07-06T20:38:50.825Z,21.30
2017-07-06T20:41:19.118Z,21.30
2017-07-06T20:43:47.485Z,21.10
2017-07-06T20:46:15.743Z,21.10
2017-07-06T20:48:44.096Z,21.00
2017-07-06T20:51:12.368Z,20.90
2017-07-06T20:53:40.660Z,20.90
2017-07-06T20:56:08.958Z,20.90
2017-07-06T20:58:37.228Z,20.90
2017-07-06T21:01:05.525Z,20.80
2017-07-06T21:03:33.797Z,20.80
2017-07-06T21:06:02.181Z,20.80
2017-07-06T21:08:30.470Z,20.80
2017-07-06T21:10:58.774Z,20.80
2017-07-06T21:13:27.941Z,20.60
2017-07-06T21:15:56.259Z,20.60
2017-07-06T21:18:24.633Z,20.60
2017-07-06T21:20:52.894Z,20.60
2017-07-06T21:23:21.201Z,20.50
2017-07-06T21:25:49.451Z,20.40
2017-07-06T21:28:17.769Z,20.40
2017-07-06T21:30:46.816Z,20.30
2017-07-06T21:33:15.097Z,20.30
2017-07-06T21:35:43.502Z,20.20
2017-07-06T21:38:11.772Z,20.20
2017-07-06T21:40:40.036Z,20.20
2017-07-06T21:43:08.410Z,20.10
2017-07-06T21:45:36.677Z,20.10
2017-07-06T21:48:04.962Z,20.00
2017-07-06T21:50:33.260Z,20.00
2017-07-06T21:53:01.531Z,20.00
2017-07-06T21:55:29.948Z,20.00
2017-07-06T21:57:59.034Z,20.00
2017-07-06T22:00:28.083Z,19.90
2017-07-06T22:02:56.372Z,19.90
2017-07-06T22:05:24.643Z,19.80
2017-07-06T22:07:53.038Z,19.80
2017-07-06T22:10:21.329Z,19.70
2017-07-06T22:12:49.698Z,19.80
2017-07-06T22:15:17.982Z,19.70
2017-07-06T22:17:46.336Z,19.70
2017-07-06T22:20:14.702Z,19.70
2017-07-06T22:22:42.978Z,19.60
2017-07-06T22:25:11.228Z,19.50
2017-07-06T22:27:39.578Z,19.50
2017-07-06T22:30:07.839Z,19.50
2017-07-06T22:32:36.226Z,19.40
2017-07-06T22:35:04.491Z,19.40
2017-07-06T22:37:32.758Z,19.40
2017-07-06T22:40:01.149Z,19.40
2017-07-06T22:42:29.413Z,19.30
2017-07-06T22:44:57.809Z,19.30
2017-07-06T22:47:26.066Z,19.20
2017-07-06T22:49:54.331Z,19.20
2017-07-06T22:52:22.646Z,19.20
2017-07-06T22:54:50.934Z,19.20
2017-07-06T22:57:19.219Z,19.30
2017-07-06T22:59:48.259Z,19.10
2017-07-06T23:02:16.532Z,19.10
2017-07-06T23:04:44.894Z,19.10
2017-07-06T23:07:13.173Z,19.10
2017-07-06T23:09:41.466Z,19.00
2017-07-06T23:12:09.730Z,19.00
2017-07-06T23:14:37.989Z,19.00
2017-07-06T23:17:06.279Z,19.00
2017-07-06T23:19:34.556Z,18.90
2017-07-06T23:22:02.937Z,18.90
2017-07-06T23:24:31.198Z,18.80
2017-07-06T23:26:59.494Z,18.80
2017-07-06T23:29:27.870Z,18.80
2017-07-06T23:31:56.136Z,18.90
2017-07-06T23:34:24.524Z,18.90
2017-07-06T23:36:52.788Z,18.80
2017-07-06T23:39:21.050Z,18.80
2017-07-06T23:41:49.361Z,18.80
2017-07-06T23:44:17.637Z,18.70
2017-07-06T23:46:46.024Z,18.70
2017-07-06T23:49:14.293Z,18.70
2017-07-06T23:51:42.653Z,18.60
2017-07-06T23:54:10.912Z,18.60
2017-07-06T23:56:39.999Z,18.60
2017-07-06T23:59:08.272Z,18.60
